createdAt,value
2017-06-13T00:01:27.502Z,2.35
2017-06-13T00:03:55.802Z,3.00
2017-06-13T00:06:24.078Z,2.70
2017-06-13T00:08:52.361Z,2.72
2017-06-13T00:11:20.643Z,3.20
2017-06-13T00:13:48.923Z,2.30
2017-06-13T00:16:17.191Z,2.70
2017-06-13T00:18:45.475Z,2.37
2017-06-13T00:21:13.743Z,2.50
2017-06-13T00:23:42.024Z,2.10
2017-06-13T00:26:10.291Z,2.17
2017-06-13T00:28:38.587Z,2.12
2017-06-13T00:31:06.863Z,3.12
2017-06-13T00:33:35.139Z,2.40
2017-06-13T00:36:03.430Z,2.25
2017-06-13T00:38:31.707Z,2.75
2017-06-13T00:40:59.994Z,2.85
2017-06-13T00:43:28.269Z,2.37
2017-06-13T00:45:56.548Z,2.20
2017-06-13T00:48:24.812Z,3.05
2017-06-13T00:50:53.092Z,3.05
2017-06-13T00:53:21.369Z,2.58
2017-06-13T00:55:49.655Z,2.55
2017-06-13T00:58:17.932Z,2.65
2017-06-13T01:03:46.887Z,2.62
2017-06-13T01:06:15.179Z,2.65
2017-06-13T01:08:43.451Z,2.78
2017-06-13T01:11:11.739Z,2.60
2017-06-13T01:13:40.011Z,2.45
2017-06-13T01:16:08.316Z,2.60
2017-06-13T01:18:37.350Z,2.78
2017-06-13T01:21:05.938Z,2.85
2017-06-13T01:23:34.215Z,2.60
2017-06-13T01:26:02.476Z,2.78
2017-06-13T01:28:30.770Z,2.60
2017-06-13T01:30:59.042Z,2.45
2017-06-13T01:33:27.323Z,2.60
2017-06-13T01:35:55.597Z,2.90
2017-06-13T01:38:24.989Z,2.87
2017-06-13T01:40:53.250Z,3.10
2017-06-13T01:43:21.546Z,2.75
2017-06-13T01:45:49.811Z,3.50
2017-06-13T01:48:18.096Z,2.40
2017-06-13T01:50:46.377Z,2.87
2017-06-13T01:53:14.659Z,2.80
2017-06-13T01:55:42.927Z,2.62
2017-06-13T01:58:11.206Z,2.90
2017-06-13T02:00:39.471Z,2.83
2017-06-13T02:03:07.755Z,2.60
2017-06-13T02:05:36.027Z,2.50
2017-06-13T02:08:04.329Z,3.22
2017-06-13T02:10:32.601Z,3.00
2017-06-13T02:13:00.865Z,2.90
2017-06-13T02:15:29.155Z,2.53
2017-06-13T02:17:57.424Z,2.50
2017-06-13T02:20:25.718Z,3.17
2017-06-13T02:22:53.979Z,3.05
2017-06-13T02:25:22.275Z,3.20
2017-06-13T02:27:50.547Z,3.20
2017-06-13T02:30:18.849Z,2.70
2017-06-13T02:32:47.127Z,4.05
2017-06-13T02:35:15.419Z,2.78
2017-06-13T02:37:43.682Z,2.85
2017-06-13T02:40:11.968Z,3.25
2017-06-13T02:42:40.231Z,2.75
2017-06-13T02:45:08.511Z,3.10
2017-06-13T02:47:36.778Z,3.22
2017-06-13T02:50:05.076Z,2.75
2017-06-13T02:52:33.339Z,2.72
2017-06-13T02:55:01.602Z,3.83
2017-06-13T02:57:30.792Z,3.35
2017-06-13T02:59:59.055Z,3.50
2017-06-13T03:02:31.805Z,4.30
2017-06-13T03:05:00.830Z,3.40
2017-06-13T03:07:29.157Z,3.47
2017-06-13T03:09:57.414Z,3.42
2017-06-13T03:12:25.699Z,4.10
2017-06-13T03:14:53.966Z,3.50
2017-06-13T03:17:22.248Z,3.87
2017-06-13T03:19:50.514Z,2.95
2017-06-13T03:22:18.799Z,3.50
2017-06-13T03:24:48.985Z,3.78
2017-06-13T03:27:18.476Z,3.90
2017-06-13T03:29:48.643Z,3.25
2017-06-13T03:32:21.139Z,3.40
2017-06-13T03:34:54.289Z,3.70
2017-06-13T03:37:26.216Z,3.75
2017-06-13T03:39:57.387Z,4.45
2017-06-13T03:42:30.912Z,3.08
2017-06-13T03:44:59.393Z,3.65
2017-06-13T03:47:27.658Z,3.65
2017-06-13T03:49:55.952Z,4.22
2017-06-13T03:52:24.220Z,3.40
2017-06-13T03:54:52.523Z,3.53
2017-06-13T03:57:20.794Z,3.55
2017-06-13T03:59:49.077Z,2.90
2017-06-13T04:02:17.353Z,3.15
2017-06-13T04:04:45.674Z,3.83
2017-06-13T04:07:13.942Z,3.53
2017-06-13T04:09:42.222Z,3.30
2017-06-13T04:12:10.487Z,3.97
2017-06-13T04:14:39.532Z,3.55
2017-06-13T04:17:07.818Z,3.75
2017-06-13T04:19:36.111Z,3.30
2017-06-13T04:22:04.379Z,3.12
2017-06-13T04:24:32.662Z,4.15
2017-06-13T04:27:00.926Z,3.60
2017-06-13T04:29:29.206Z,3.25
2017-06-13T04:31:57.478Z,4.40
2017-06-13T04:34:25.754Z,4.25
2017-06-13T04:36:54.058Z,3.70
2017-06-13T04:39:22.331Z,3.65
2017-06-13T04:41:50.654Z,4.00
2017-06-13T04:44:18.920Z,4.20
2017-06-13T04:46:47.981Z,4.10
2017-06-13T04:49:16.243Z,4.12
2017-06-13T04:51:44.526Z,3.72
2017-06-13T04:54:12.787Z,3.55
2017-06-13T04:56:41.071Z,3.95
2017-06-13T04:59:09.339Z,4.37
2017-06-13T05:01:37.619Z,3.85
2017-06-13T05:04:05.889Z,3.40
2017-06-13T05:06:34.166Z,3.95
2017-06-13T05:09:02.442Z,3.62
2017-06-13T05:11:30.743Z,3.65
2017-06-13T05:13:59.005Z,4.32
2017-06-13T05:16:27.270Z,4.72
2017-06-13T05:18:55.555Z,4.05
2017-06-13T05:21:23.822Z,4.00
2017-06-13T05:23:52.102Z,4.28
2017-06-13T05:26:20.370Z,4.70
2017-06-13T05:28:48.650Z,3.78
2017-06-13T05:31:16.906Z,4.20
2017-06-13T05:33:45.194Z,3.25
2017-06-13T05:36:13.461Z,3.45
2017-06-13T05:38:41.738Z,3.70
2017-06-13T05:41:10.006Z,4.18
2017-06-13T05:43:38.294Z,3.90
2017-06-13T05:46:06.569Z,3.60
2017-06-13T05:48:34.875Z,3.40
2017-06-13T05:51:03.186Z,2.83
2017-06-13T05:53:31.438Z,3.35
2017-06-13T05:55:59.725Z,3.40
2017-06-13T05:58:27.988Z,3.55
2017-06-13T06:00:56.277Z,3.65
2017-06-13T06:03:24.547Z,3.37
2017-06-13T06:05:52.834Z,3.53
2017-06-13T06:08:21.107Z,3.75
2017-06-13T06:10:49.400Z,3.40
2017-06-13T06:13:17.676Z,2.90
2017-06-13T06:15:45.992Z,3.37
2017-06-13T06:18:14.262Z,3.08
2017-06-13T06:20:43.314Z,3.30
2017-06-13T06:23:11.583Z,3.25
2017-06-13T06:25:39.886Z,3.53
2017-06-13T06:28:08.150Z,3.47
2017-06-13T06:30:36.418Z,4.10
2017-06-13T06:33:04.702Z,3.62
2017-06-13T06:35:32.961Z,3.85
2017-06-13T06:38:01.263Z,3.45
2017-06-13T06:40:29.538Z,3.58
2017-06-13T06:42:57.818Z,3.90
2017-06-13T06:45:26.090Z,3.80
2017-06-13T06:47:54.370Z,3.17
2017-06-13T06:50:22.639Z,3.20
2017-06-13T06:52:50.919Z,3.50
2017-06-13T06:55:19.245Z,3.22
2017-06-13T06:57:48.338Z,4.10
2017-06-13T07:00:16.608Z,3.60
2017-06-13T07:02:45.672Z,3.15
2017-06-13T07:05:13.937Z,3.30
2017-06-13T07:07:42.207Z,3.60
2017-06-13T07:10:10.503Z,3.58
2017-06-13T07:12:38.781Z,3.65
2017-06-13T07:15:07.072Z,3.22
2017-06-13T07:17:36.126Z,3.20
2017-06-13T07:20:04.411Z,3.20
2017-06-13T07:22:32.691Z,3.62
2017-06-13T07:25:00.978Z,4.40
2017-06-13T07:27:29.252Z,3.25
2017-06-13T07:29:57.532Z,3.42
2017-06-13T07:32:25.831Z,3.50
2017-06-13T07:34:54.134Z,2.92
2017-06-13T07:37:22.394Z,3.75
2017-06-13T07:39:51.447Z,3.92
2017-06-13T07:42:19.719Z,3.95
2017-06-13T07:44:47.996Z,3.78
2017-06-13T07:47:16.287Z,3.47
2017-06-13T07:49:44.601Z,3.72
2017-06-13T07:52:13.641Z,3.40
2017-06-13T07:54:41.929Z,3.83
2017-06-13T07:57:10.224Z,3.80
2017-06-13T07:59:39.338Z,3.55
2017-06-13T08:02:08.572Z,3.60
2017-06-13T08:04:36.839Z,3.10
2017-06-13T08:07:05.126Z,3.80
2017-06-13T08:09:33.394Z,3.65
2017-06-13T08:12:01.723Z,3.75
2017-06-13T08:14:30.068Z,3.70
2017-06-13T08:16:58.350Z,4.12
2017-06-13T08:19:26.626Z,3.83
2017-06-13T08:21:54.911Z,4.15
2017-06-13T08:24:23.186Z,4.18
2017-06-13T08:26:51.487Z,3.80
2017-06-13T08:29:19.752Z,4.10
2017-06-13T08:31:48.042Z,4.20
2017-06-13T08:34:16.303Z,3.30
2017-06-13T08:36:44.635Z,3.72
2017-06-13T08:39:12.900Z,4.78
2017-06-13T08:41:41.927Z,3.28
2017-06-13T08:44:10.214Z,3.62
2017-06-13T08:46:38.482Z,4.10
2017-06-13T08:49:06.808Z,3.20
2017-06-13T08:51:35.082Z,3.95
2017-06-13T08:54:03.404Z,3.70
2017-06-13T08:56:31.681Z,3.75
2017-06-13T08:58:59.956Z,4.25
2017-06-13T09:01:28.247Z,4.72
2017-06-13T09:03:56.571Z,4.05
2017-06-13T09:06:24.859Z,4.07
2017-06-13T09:08:53.943Z,3.90
2017-06-13T09:11:22.211Z,5.22
2017-06-13T09:13:50.498Z,4.30
2017-06-13T09:16:18.767Z,3.20
2017-06-13T09:18:47.072Z,4.87
2017-06-13T09:21:16.107Z,4.15
2017-06-13T09:23:44.371Z,3.90
2017-06-13T09:26:12.670Z,4.15
2017-06-13T09:28:40.945Z,3.95
2017-06-13T09:31:09.264Z,3.30
2017-06-13T09:33:37.532Z,5.05
2017-06-13T09:36:06.595Z,3.75
2017-06-13T09:38:34.869Z,3.70
2017-06-13T09:41:03.170Z,3.53
2017-06-13T09:43:31.470Z,4.07
2017-06-13T09:46:00.322Z,4.30
2017-06-13T09:48:28.591Z,4.43
2017-06-13T09:50:56.883Z,3.40
2017-06-13T09:53:25.157Z,4.22
2017-06-13T09:55:53.451Z,4.00
2017-06-13T09:58:22.770Z,4.03
2017-06-13T10:00:51.058Z,4.10
2017-06-13T10:03:19.347Z,4.22
2017-06-13T10:05:47.716Z,3.37
2017-06-13T10:08:16.013Z,3.20
2017-06-13T10:10:44.289Z,4.05
2017-06-13T10:13:12.574Z,3.47
2017-06-13T10:15:40.853Z,3.83
2017-06-13T10:18:09.144Z,4.25
2017-06-13T10:20:37.422Z,3.85
2017-06-13T10:23:05.769Z,4.55
2017-06-13T10:25:34.047Z,3.90
2017-06-13T10:28:02.329Z,3.47
2017-06-13T10:30:30.628Z,4.25
2017-06-13T10:32:59.269Z,3.70
2017-06-13T10:35:28.497Z,3.60
2017-06-13T10:37:56.771Z,3.78
2017-06-13T10:40:25.067Z,4.12
2017-06-13T10:42:53.591Z,3.25
2017-06-13T10:45:21.896Z,4.37
2017-06-13T10:47:50.185Z,3.80
2017-06-13T10:50:18.470Z,3.50
2017-06-13T10:52:46.748Z,4.12
2017-06-13T10:55:15.075Z,3.78
2017-06-13T10:57:44.120Z,3.45
2017-06-13T11:00:12.401Z,3.08
2017-06-13T11:02:40.700Z,4.10
2017-06-13T11:05:08.982Z,3.62
2017-06-13T11:07:37.333Z,3.17
2017-06-13T11:10:05.618Z,3.42
2017-06-13T11:12:33.903Z,3.92
2017-06-13T11:15:02.179Z,3.92
2017-06-13T11:17:30.475Z,3.00
2017-06-13T11:19:58.780Z,3.25
2017-06-13T11:22:27.230Z,3.70
2017-06-13T11:24:55.637Z,4.00
2017-06-13T11:27:23.932Z,4.30
2017-06-13T11:29:52.227Z,3.03
2017-06-13T11:32:20.527Z,3.45
2017-06-13T11:34:48.807Z,3.42
2017-06-13T11:37:17.132Z,3.83
2017-06-13T11:39:45.419Z,3.45
2017-06-13T11:42:13.706Z,3.15
2017-06-13T11:44:42.025Z,4.22
2017-06-13T11:47:10.311Z,3.42
2017-06-13T11:49:38.664Z,3.62
2017-06-13T11:52:06.944Z,3.35
2017-06-13T11:54:35.237Z,3.12
2017-06-13T11:57:03.535Z,3.78
2017-06-13T11:59:31.843Z,3.92
2017-06-13T12:02:00.131Z,3.30
2017-06-13T12:04:28.468Z,3.70
2017-06-13T12:06:56.746Z,4.10
2017-06-13T12:09:25.052Z,3.67
2017-06-13T12:11:53.375Z,3.50
2017-06-13T12:14:21.679Z,3.30
2017-06-13T12:16:49.968Z,3.80
2017-06-13T12:19:18.300Z,3.45
2017-06-13T12:21:46.575Z,3.12
2017-06-13T12:24:14.860Z,3.28
2017-06-13T12:26:43.154Z,3.50
2017-06-13T12:29:12.277Z,3.78
2017-06-13T12:31:40.577Z,3.62
2017-06-13T12:34:08.850Z,3.80
2017-06-13T12:36:37.155Z,3.53
2017-06-13T12:39:05.455Z,3.90
2017-06-13T12:41:33.753Z,3.05
2017-06-13T12:44:02.038Z,3.90
2017-06-13T12:46:30.337Z,3.30
2017-06-13T12:48:58.660Z,3.50
2017-06-13T12:51:26.959Z,3.70
2017-06-13T12:53:55.235Z,3.53
2017-06-13T12:56:23.580Z,3.47
2017-06-13T12:58:51.860Z,3.20
2017-06-13T13:01:20.195Z,3.75
2017-06-13T13:03:48.494Z,3.30
2017-06-13T13:06:16.839Z,3.33
2017-06-13T13:08:45.192Z,3.25
2017-06-13T13:11:13.490Z,4.57
2017-06-13T13:13:41.800Z,3.42
2017-06-13T13:16:10.082Z,3.30
2017-06-13T13:18:38.424Z,4.05
2017-06-13T13:21:07.156Z,3.17
2017-06-13T13:23:35.453Z,2.70
2017-06-13T13:26:03.747Z,3.50
2017-06-13T13:28:32.058Z,4.00
2017-06-13T13:31:00.356Z,3.10
2017-06-13T13:33:28.692Z,3.58
2017-06-13T13:35:57.460Z,2.80
2017-06-13T13:38:25.744Z,2.60
2017-06-13T13:40:54.815Z,3.22
2017-06-13T13:43:23.159Z,3.60
2017-06-13T13:45:51.482Z,3.42
2017-06-13T13:48:19.756Z,3.20
2017-06-13T13:50:48.064Z,3.78
2017-06-13T13:53:17.117Z,3.70
2017-06-13T13:55:45.418Z,4.12
2017-06-13T13:58:13.708Z,3.72
2017-06-13T14:00:42.775Z,3.33
2017-06-13T14:03:11.052Z,3.30
2017-06-13T14:05:39.350Z,3.70
2017-06-13T14:08:07.667Z,3.53
2017-06-13T14:10:36.144Z,3.30
2017-06-13T14:13:04.440Z,3.70
2017-06-13T14:15:32.721Z,4.07
2017-06-13T14:18:01.066Z,3.65
2017-06-13T14:20:29.347Z,3.40
2017-06-13T14:22:57.643Z,3.55
2017-06-13T14:25:25.916Z,3.92
2017-06-13T14:27:56.309Z,3.72
2017-06-13T14:30:25.361Z,3.60
2017-06-13T14:32:53.765Z,3.28
2017-06-13T14:35:22.044Z,3.60
2017-06-13T14:37:50.338Z,3.60
2017-06-13T14:40:18.850Z,3.30
2017-06-13T14:42:47.204Z,2.65
2017-06-13T14:45:15.478Z,3.30
2017-06-13T14:47:43.812Z,3.08
2017-06-13T14:50:12.235Z,3.25
2017-06-13T14:52:41.310Z,3.17
2017-06-13T14:55:09.624Z,3.97
2017-06-13T14:57:37.903Z,3.28
2017-06-13T15:00:06.988Z,3.42
2017-06-13T15:02:35.265Z,3.50
2017-06-13T15:05:03.567Z,3.33
2017-06-13T15:07:31.846Z,3.70
2017-06-13T15:10:00.143Z,3.40
2017-06-13T15:12:29.180Z,3.62
2017-06-13T15:14:57.467Z,3.03
2017-06-13T15:17:25.744Z,3.10
2017-06-13T15:19:54.034Z,3.37
2017-06-13T15:22:22.321Z,3.10
2017-06-13T15:24:51.414Z,3.53
2017-06-13T15:27:19.691Z,3.75
2017-06-13T15:29:47.983Z,3.65
2017-06-13T15:32:16.292Z,3.05
2017-06-13T15:34:44.591Z,3.50
2017-06-13T15:37:12.876Z,2.95
2017-06-13T15:39:41.147Z,3.80
2017-06-13T15:42:09.452Z,3.00
2017-06-13T15:44:37.712Z,3.28
2017-06-13T15:47:06.002Z,3.50
2017-06-13T15:49:34.275Z,3.40
2017-06-13T15:52:02.571Z,3.80
2017-06-13T15:54:30.851Z,3.67
2017-06-13T15:56:59.235Z,3.30
2017-06-13T15:59:28.274Z,3.45
2017-06-13T16:01:56.564Z,3.22
2017-06-13T16:04:24.844Z,3.70
2017-06-13T16:06:53.135Z,3.80
2017-06-13T16:09:21.414Z,3.65
2017-06-13T16:11:49.707Z,3.45
2017-06-13T16:14:17.974Z,4.50
2017-06-13T16:16:46.281Z,3.35
2017-06-13T16:19:14.559Z,3.78
2017-06-13T16:21:42.830Z,4.10
2017-06-13T16:24:11.890Z,3.65
2017-06-13T16:26:40.159Z,3.83
2017-06-13T16:29:08.446Z,3.70
2017-06-13T16:31:36.725Z,4.10
2017-06-13T16:34:05.010Z,3.28
2017-06-13T16:36:33.287Z,2.90
2017-06-13T16:39:01.590Z,3.35
2017-06-13T16:41:29.903Z,3.22
2017-06-13T16:43:58.203Z,3.03
2017-06-13T16:46:26.479Z,3.50
2017-06-13T16:48:54.767Z,2.87
2017-06-13T16:51:23.063Z,3.50
2017-06-13T16:53:51.352Z,3.15
2017-06-13T16:56:20.396Z,3.47
2017-06-13T16:58:48.688Z,3.53
2017-06-13T17:01:16.960Z,3.42
2017-06-13T17:03:45.294Z,2.97
2017-06-13T17:06:13.574Z,3.00
2017-06-13T17:08:41.848Z,2.67
2017-06-13T17:11:10.929Z,3.30
2017-06-13T17:13:39.983Z,3.08
2017-06-13T17:16:08.295Z,3.10
2017-06-13T17:18:36.566Z,3.20
2017-06-13T17:21:04.855Z,2.95
2017-06-13T17:23:34.008Z,3.15
2017-06-13T17:26:02.344Z,2.70
2017-06-13T17:28:32.200Z,3.05
2017-06-13T17:31:00.561Z,2.95
2017-06-13T17:33:28.849Z,3.00
2017-06-13T17:35:57.166Z,3.10
2017-06-13T17:38:25.427Z,2.55
2017-06-13T17:40:53.727Z,2.90
2017-06-13T17:43:22.008Z,2.75
2017-06-13T17:45:50.431Z,2.78
2017-06-13T17:48:18.708Z,3.03
2017-06-13T17:50:47.075Z,4.20
2017-06-13T17:53:15.350Z,3.70
2017-06-13T17:55:43.640Z,2.90
2017-06-13T17:58:11.946Z,2.30
2017-06-13T18:00:40.215Z,2.80
2017-06-13T18:03:08.531Z,2.45
2017-06-13T18:05:37.575Z,2.97
2017-06-13T18:08:05.860Z,2.35
2017-06-13T18:10:34.133Z,2.60
2017-06-13T18:13:02.435Z,2.65
2017-06-13T18:15:30.736Z,3.08
2017-06-13T18:17:59.795Z,3.10
2017-06-13T18:20:28.074Z,3.15
2017-06-13T18:22:56.379Z,3.00
2017-06-13T18:25:24.647Z,3.03
2017-06-13T18:27:52.951Z,2.85
2017-06-13T18:30:21.999Z,2.87
2017-06-13T18:32:50.277Z,3.25
2017-06-13T18:35:18.582Z,2.62
2017-06-13T18:37:46.849Z,2.67
2017-06-13T18:40:15.151Z,2.60
2017-06-13T18:42:44.196Z,3.05
2017-06-13T18:45:12.495Z,3.75
2017-06-13T18:47:40.787Z,2.95
2017-06-13T18:50:09.092Z,3.30
2017-06-13T18:52:37.401Z,3.37
2017-06-13T18:55:05.690Z,3.17
2017-06-13T18:57:33.975Z,3.83
2017-06-13T19:00:02.280Z,4.00
2017-06-13T19:02:30.596Z,3.50
2017-06-13T19:04:58.878Z,3.83
2017-06-13T19:07:27.987Z,3.58
2017-06-13T19:09:56.275Z,3.40
2017-06-13T19:12:24.568Z,3.42
2017-06-13T19:14:52.868Z,3.10
2017-06-13T19:17:21.141Z,3.50
2017-06-13T19:19:50.185Z,3.70
2017-06-13T19:22:18.466Z,3.40
2017-06-13T19:24:46.739Z,3.83
2017-06-13T19:27:15.035Z,3.15
2017-06-13T19:29:43.307Z,3.37
2017-06-13T19:32:11.630Z,3.45
2017-06-13T19:34:39.918Z,4.18
2017-06-13T19:37:08.223Z,3.97
2017-06-13T19:39:36.523Z,3.10
2017-06-13T19:42:04.864Z,3.67
2017-06-13T19:44:33.143Z,3.87
2017-06-13T19:47:01.448Z,3.35
2017-06-13T19:49:29.776Z,4.12
2017-06-13T19:51:58.850Z,3.70
2017-06-13T19:54:27.120Z,4.10
2017-06-13T19:56:55.400Z,4.50
2017-06-13T19:59:23.695Z,4.60
2017-06-13T20:01:52.742Z,3.60
2017-06-13T20:04:21.031Z,4.35
2017-06-13T20:06:49.376Z,3.78
2017-06-13T20:09:17.669Z,4.07
2017-06-13T20:11:45.967Z,4.35
2017-06-13T20:14:14.274Z,4.53
2017-06-13T20:16:42.563Z,4.50
2017-06-13T20:19:10.847Z,3.72
2017-06-13T20:21:42.954Z,4.15
2017-06-13T20:24:12.243Z,4.40
2017-06-13T20:26:40.526Z,4.35
2017-06-13T20:29:14.624Z,4.40
2017-06-13T20:31:42.901Z,4.55
2017-06-13T20:34:11.204Z,4.53
2017-06-13T20:36:39.472Z,5.30
2017-06-13T20:39:07.860Z,4.90
2017-06-13T20:41:36.127Z,4.85
2017-06-13T20:44:04.429Z,4.40
2017-06-13T20:46:32.698Z,5.05
2017-06-13T20:49:00.978Z,5.10
2017-06-13T20:51:29.283Z,4.93
2017-06-13T20:53:58.326Z,5.47
2017-06-13T20:56:26.616Z,5.05
2017-06-13T20:58:54.887Z,4.70
2017-06-13T21:01:23.183Z,6.82
2017-06-13T21:03:51.447Z,5.35
2017-06-13T21:06:19.739Z,5.95
2017-06-13T21:08:48.011Z,5.05
2017-06-13T21:11:16.303Z,4.00
2017-06-13T21:13:44.579Z,5.18
2017-06-13T21:16:12.875Z,5.35
2017-06-13T21:18:41.150Z,5.32
2017-06-13T21:21:10.204Z,5.80
2017-06-13T21:23:38.471Z,5.65
2017-06-13T21:26:06.789Z,5.50
2017-06-13T21:28:35.064Z,5.45
2017-06-13T21:31:03.343Z,6.05
2017-06-13T21:33:31.629Z,5.35
2017-06-13T21:35:59.899Z,6.10
2017-06-13T21:38:28.191Z,6.12
2017-06-13T21:40:57.238Z,6.12
2017-06-13T21:43:25.538Z,6.12
2017-06-13T21:45:53.808Z,6.32
2017-06-13T21:48:22.100Z,6.45
2017-06-13T21:50:50.378Z,6.00
2017-06-13T21:53:18.671Z,6.30
2017-06-13T21:55:47.708Z,6.75
2017-06-13T21:58:16.013Z,6.93
2017-06-13T22:00:44.287Z,6.43
2017-06-13T22:03:12.566Z,5.57
2017-06-13T22:05:40.834Z,5.95
2017-06-13T22:08:09.100Z,6.95
2017-06-13T22:10:37.384Z,6.40
2017-06-13T22:13:05.674Z,5.90
2017-06-13T22:15:33.976Z,6.35
2017-06-13T22:18:02.248Z,5.60
2017-06-13T22:20:30.540Z,6.62
2017-06-13T22:22:59.582Z,5.07
2017-06-13T22:25:27.867Z,6.12
2017-06-13T22:27:56.140Z,6.15
2017-06-13T22:30:24.435Z,6.82
2017-06-13T22:32:52.712Z,6.10
2017-06-13T22:35:21.020Z,6.00
2017-06-13T22:37:50.063Z,6.40
2017-06-13T22:40:18.328Z,5.90
2017-06-13T22:42:46.625Z,5.90
2017-06-13T22:45:14.895Z,5.97
2017-06-13T22:47:43.186Z,6.12
2017-06-13T22:50:11.459Z,6.97
2017-06-13T22:52:39.752Z,6.95
2017-06-13T22:55:08.028Z,6.60
2017-06-13T22:57:36.316Z,6.00
2017-06-13T23:00:04.600Z,6.50
2017-06-13T23:02:32.894Z,6.68
2017-06-13T23:05:01.934Z,7.40
2017-06-13T23:07:30.227Z,7.22
2017-06-13T23:09:58.527Z,7.25
2017-06-13T23:12:26.808Z,6.57
2017-06-13T23:14:55.123Z,6.32
2017-06-13T23:17:23.393Z,6.20
2017-06-13T23:19:51.694Z,6.30
2017-06-13T23:22:19.963Z,6.80
2017-06-13T23:24:48.249Z,6.35
2017-06-13T23:27:16.531Z,6.30
2017-06-13T23:29:44.824Z,7.00
2017-06-13T23:32:13.100Z,7.53
2017-06-13T23:34:41.378Z,6.82
2017-06-13T23:37:09.677Z,7.22
2017-06-13T23:39:37.955Z,6.82
2017-06-13T23:42:06.239Z,7.55
2017-06-13T23:44:34.514Z,6.15
2017-06-13T23:47:03.568Z,6.05
2017-06-13T23:49:31.846Z,6.95
2017-06-13T23:52:00.123Z,6.30
2017-06-13T23:54:28.403Z,6.28
2017-06-13T23:56:56.686Z,7.05
2017-06-13T23:59:25.024Z,6.55
